sensor_id;sensor_type;location;lat;lon;timestamp;pressure;altitude;pressure_sealevel;temperature;humidity
67840;BME280;54636;51.684;5.142;2023-02-21T00:00:52;102165.34;;;8.09;100.00
67840;BME280;54636;51.684;5.142;2023-02-21T00:03:36;102173.69;;;8.15;100.00
67840;BME280;54636;51.684;5.142;2023-02-21T00:06:20;102173.03;;;8.23;100.00
67840;BME280;54636;51.684;5.142;2023-02-21T00:09:04;102177.91;;;8.16;100.00
67840;BME280;54636;51.684;5.142;2023-02-21T00:11:48;102147.56;;;8.08;100.00
67840;BME280;54636;51.684;5.142;2023-02-21T00:14:32;102161.34;;;8.14;100.00
67840;BME280;54636;51.684;5.142;2023-02-21T00:17:16;102146.50;;;8.06;100.00
67840;BME280;54636;51.684;5.142;2023-02-21T00:20:00;102161.88;;;8.09;100.00
67840;BME280;54636;51.684;5.142;2023-02-21T00:22:44;102165.34;;;8.09;100.00
67840;BME280;54636;51.684;5.142;2023-02-21T00:25:28;102167.59;;;8.11;100.00
67840;BME280;54636;51.684;5.142;2023-02-21T00:28:12;102165.34;;;8.09;100.00
67840;BME280;54636;51.684;5.142;2023-02-21T00:30:56;102157.28;;;7.93;100.00
67840;BME280;54636;51.684;5.142;2023-02-21T00:33:40;102181.91;;;8.11;100.00
67840;BME280;54636;51.684;5.142;2023-02-21T00:36:24;102180.38;;;8.10;100.00
67840;BME280;54636;51.684;5.142;2023-02-21T00:39:08;102182.31;;;8.10;100.00
67840;BME280;54636;51.684;5.142;2023-02-21T00:41:52;102180.28;;;8.14;100.00
67840;BME280;54636;51.684;5.142;2023-02-21T00:44:36;102176.50;;;8.11;100.00
67840;BME280;54636;51.684;5.142;2023-02-21T00:47:20;102172.06;;;8.17;100.00
67840;BME280;54636;51.684;5.142;2023-02-21T00:50:05;102169.88;;;8.12;100.00
67840;BME280;54636;51.684;5.142;2023-02-21T00:52:49;102162.28;;;8.07;100.00
67840;BME280;54636;51.684;5.142;2023-02-21T00:55:33;102167.19;;;8.12;100.00
67840;BME280;54636;51.684;5.142;2023-02-21T00:58:20;102153.41;;;8.07;100.00
67840;BME280;54636;51.684;5.142;2023-02-21T01:01:04;102134.13;;;7.92;100.00
67840;BME280;54636;51.684;5.142;2023-02-21T01:03:48;102157.75;;;8.04;100.00
67840;BME280;54636;51.684;5.142;2023-02-21T01:06:32;102130.88;;;7.97;100.00
67840;BME280;54636;51.684;5.142;2023-02-21T01:09:16;102154.94;;;8.08;100.00
67840;BME280;54636;51.684;5.142;2023-02-21T01:12:00;102105.97;;;7.77;100.00
67840;BME280;54636;51.684;5.142;2023-02-21T01:14:44;102138.25;;;7.97;100.00
67840;BME280;54636;51.684;5.142;2023-02-21T01:17:27;102139.56;;;8.05;100.00
67840;BME280;54636;51.684;5.142;2023-02-21T01:20:11;102143.44;;;8.04;100.00
67840;BME280;54636;51.684;5.142;2023-02-21T01:22:55;102104.13;;;7.74;100.00
67840;BME280;54636;51.684;5.142;2023-02-21T01:25:39;102137.38;;;8.00;100.00
67840;BME280;54636;51.684;5.142;2023-02-21T01:28:23;102133.59;;;7.97;100.00
67840;BME280;54636;51.684;5.142;2023-02-21T01:31:07;102133.06;;;8.02;100.00
67840;BME280;54636;51.684;5.142;2023-02-21T01:33:51;102126.88;;;8.02;100.00
67840;BME280;54636;51.684;5.142;2023-02-21T01:36:35;102123.22;;;8.08;100.00
67840;BME280;54636;51.684;5.142;2023-02-21T01:39:19;102123.44;;;8.01;100.00
67840;BME280;54636;51.684;5.142;2023-02-21T01:42:03;102127.97;;;8.04;100.00
67840;BME280;54636;51.684;5.142;2023-02-21T01:44:48;102129.59;;;8.02;100.00
67840;BME280;54636;51.684;5.142;2023-02-21T01:47:33;102135.00;;;8.02;100.00
67840;BME280;54636;51.684;5.142;2023-02-21T01:50:21;102121.47;;;8.02;100.00
67840;BME280;54636;51.684;5.142;2023-02-21T01:53:12;102119.31;;;7.97;100.00
67840;BME280;54636;51.684;5.142;2023-02-21T01:55:58;102138.38;;;8.06;100.00
67840;BME280;54636;51.684;5.142;2023-02-21T01:58:43;102124.06;;;7.92;100.00
67840;BME280;54636;51.684;5.142;2023-02-21T02:02:04;102138.69;;;8.08;100.00
67840;BME280;54636;51.684;5.142;2023-02-21T02:04:51;102121.25;;;7.96;100.00
67840;BME280;54636;51.684;5.142;2023-02-21T02:07:36;102130.78;;;8.01;100.00
67840;BME280;54636;51.684;5.142;2023-02-21T02:10:20;102121.81;;;8.04;100.00
67840;BME280;54636;51.684;5.142;2023-02-21T02:16:15;102107.28;;;7.98;100.00
67840;BME280;54636;51.684;5.142;2023-02-21T02:24:24;102112.59;;;8.01;100.00
67840;BME280;54636;51.684;5.142;2023-02-21T02:35:08;102107.94;;;8.02;100.00
67840;BME280;54636;51.684;5.142;2023-02-21T02:37:46;102111.09;;;8.00;100.00
67840;BME280;54636;51.684;5.142;2023-02-21T02:43:13;102086.59;;;7.91;100.00
67840;BME280;54636;51.684;5.142;2023-02-21T02:45:57;102090.84;;;7.92;100.00
67840;BME280;54636;51.684;5.142;2023-02-21T02:50:55;102082.72;;;7.92;100.00
67840;BME280;54636;51.684;5.142;2023-02-21T02:53:26;102083.28;;;8.00;100.00
67840;BME280;54636;51.684;5.142;2023-02-21T02:55:55;102081.00;;;7.98;100.00
67840;BME280;54636;51.684;5.142;2023-02-21T02:58:23;102063.22;;;7.84;100.00
67840;BME280;54636;51.684;5.142;2023-02-21T03:11:59;102051.75;;;7.68;100.00
67840;BME280;54636;51.684;5.142;2023-02-21T03:14:38;102079.69;;;7.90;100.00
67840;BME280;54636;51.684;5.142;2023-02-21T03:17:06;102076.56;;;8.04;100.00
67840;BME280;54636;51.684;5.142;2023-02-21T03:19:37;102086.94;;;7.93;100.00
67840;BME280;54636;51.684;5.142;2023-02-21T03:22:07;102068.53;;;7.75;100.00
67840;BME280;54636;51.684;5.142;2023-02-21T03:24:34;102084.75;;;7.88;100.00
67840;BME280;54636;51.684;5.142;2023-02-21T03:27:04;102078.50;;;7.78;100.00
67840;BME280;54636;51.684;5.142;2023-02-21T03:29:31;102087.56;;;7.84;100.00
67840;BME280;54636;51.684;5.142;2023-02-21T03:32:02;102075.56;;;7.73;100.00
67840;BME280;54636;51.684;5.142;2023-02-21T03:34:39;102087.03;;;7.77;100.00
67840;BME280;54636;51.684;5.142;2023-02-21T03:37:18;102081.50;;;7.80;100.00
67840;BME280;54636;51.684;5.142;2023-02-21T03:39:44;102052.91;;;7.54;100.00
67840;BME280;54636;51.684;5.142;2023-02-21T03:42:09;102085.94;;;7.87;100.00
67840;BME280;54636;51.684;5.142;2023-02-21T03:44:35;102076.22;;;7.77;100.00
67840;BME280;54636;51.684;5.142;2023-02-21T03:47:00;102085.94;;;7.87;100.00
67840;BME280;54636;51.684;5.142;2023-02-21T03:49:26;102084.00;;;7.87;100.00
67840;BME280;54636;51.684;5.142;2023-02-21T03:51:51;102076.31;;;7.86;100.00
67840;BME280;54636;51.684;5.142;2023-02-21T03:54:16;102062.25;;;7.78;100.00
67840;BME280;54636;51.684;5.142;2023-02-21T03:56:42;102038.75;;;7.63;100.00
67840;BME280;54636;51.684;5.142;2023-02-21T03:59:07;102080.22;;;7.85;100.00
67840;BME280;54636;51.684;5.142;2023-02-21T04:01:32;102068.97;;;7.74;100.00
67840;BME280;54636;51.684;5.142;2023-02-21T04:03:58;102076.41;;;7.82;100.00
67840;BME280;54636;51.684;5.142;2023-02-21T04:06:23;102072.66;;;7.80;100.00
67840;BME280;54636;51.684;5.142;2023-02-21T04:08:49;102077.50;;;7.85;100.00
67840;BME280;54636;51.684;5.142;2023-02-21T04:11:19;102080.78;;;7.80;100.00
67840;BME280;54636;51.684;5.142;2023-02-21T04:13:45;102054.88;;;7.66;100.00
67840;BME280;54636;51.684;5.142;2023-02-21T04:16:10;102087.56;;;7.84;100.00
67840;BME280;54636;51.684;5.142;2023-02-21T04:18:36;102073.94;;;7.75;100.00
67840;BME280;54636;51.684;5.142;2023-02-21T04:21:01;102078.06;;;7.80;100.00
67840;BME280;54636;51.684;5.142;2023-02-21T04:23:26;102075.78;;;7.78;100.00
67840;BME280;54636;51.684;5.142;2023-02-21T04:25:52;102071.13;;;7.79;100.00
67840;BME280;54636;51.684;5.142;2023-02-21T04:28:17;102076.41;;;7.82;100.00
67840;BME280;54636;51.684;5.142;2023-02-21T04:30:43;102079.78;;;7.86;100.00
67840;BME280;54636;51.684;5.142;2023-02-21T04:33:08;102075.56;;;7.85;100.00
67840;BME280;54636;51.684;5.142;2023-02-21T04:35:33;102074.28;;;7.77;100.00
67840;BME280;54636;51.684;5.142;2023-02-21T04:37:59;102034.63;;;7.58;100.00
67840;BME280;54636;51.684;5.142;2023-02-21T04:40:24;102055.53;;;7.70;100.00
67840;BME280;54636;51.684;5.142;2023-02-21T04:42:49;102073.28;;;7.84;100.00
67840;BME280;54636;51.684;5.142;2023-02-21T04:45:15;102063.78;;;7.79;100.00
67840;BME280;54636;51.684;5.142;2023-02-21T04:47:40;102070.25;;;7.82;100.00
67840;BME280;54636;51.684;5.142;2023-02-21T04:50:06;102047.00;;;7.72;100.00
67840;BME280;54636;51.684;5.142;2023-02-21T04:52:32;102039.41;;;7.67;100.00
67840;BME280;54636;51.684;5.142;2023-02-21T04:54:57;102053.41;;;7.78;100.00
67840;BME280;54636;51.684;5.142;2023-02-21T04:57:22;102025.56;;;7.65;100.00
67840;BME280;54636;51.684;5.142;2023-02-21T04:59:48;102060.94;;;7.83;100.00
67840;BME280;54636;51.684;5.142;2023-02-21T05:02:14;102045.72;;;7.76;100.00
67840;BME280;54636;51.684;5.142;2023-02-21T05:04:39;102050.13;;;7.83;100.00
67840;BME280;54636;51.684;5.142;2023-02-21T05:07:07;102034.13;;;7.76;100.00
67840;BME280;54636;51.684;5.142;2023-02-21T05:09:32;102044.84;;;7.79;100.00
67840;BME280;54636;51.684;5.142;2023-02-21T05:11:58;102046.13;;;7.75;100.00
67840;BME280;54636;51.684;5.142;2023-02-21T05:14:23;102038.00;;;7.62;100.00
67840;BME280;54636;51.684;5.142;2023-02-21T05:16:49;102053.16;;;7.72;100.00
67840;BME280;54636;51.684;5.142;2023-02-21T05:19:20;102044.81;;;7.67;100.00
67840;BME280;54636;51.684;5.142;2023-02-21T05:21:53;102052.84;;;7.70;100.00
67840;BME280;54636;51.684;5.142;2023-02-21T05:24:19;102045.59;;;7.67;100.00
67840;BME280;54636;51.684;5.142;2023-02-21T05:26:44;102047.75;;;7.72;100.00
67840;BME280;54636;51.684;5.142;2023-02-21T05:29:12;102053.59;;;7.71;100.00
67840;BME280;54636;51.684;5.142;2023-02-21T05:31:38;102057.47;;;7.70;100.00
67840;BME280;54636;51.684;5.142;2023-02-21T05:34:03;102053.38;;;7.65;100.00
67840;BME280;54636;51.684;5.142;2023-02-21T05:36:28;102038.75;;;7.63;100.00
67840;BME280;54636;51.684;5.142;2023-02-21T05:38:54;102061.81;;;7.67;100.00
67840;BME280;54636;51.684;5.142;2023-02-21T05:41:20;102057.59;;;7.66;100.00
67840;BME280;54636;51.684;5.142;2023-02-21T05:43:47;102042.31;;;7.59;100.00
67840;BME280;54636;51.684;5.142;2023-02-21T05:46:29;102035.50;;;7.55;100.00
67840;BME280;54636;51.684;5.142;2023-02-21T05:48:56;102021.72;;;7.37;100.00
67840;BME280;54636;51.684;5.142;2023-02-21T05:51:22;102054.13;;;7.66;100.00
67840;BME280;54636;51.684;5.142;2023-02-21T05:53:47;102053.78;;;7.64;100.00
67840;BME280;54636;51.684;5.142;2023-02-21T05:56:13;102056.41;;;7.67;100.00
67840;BME280;54636;51.684;5.142;2023-02-21T05:58:39;102059.63;;;7.62;100.00
67840;BME280;54636;51.684;5.142;2023-02-21T06:01:05;102037.00;;;7.56;100.00
67840;BME280;54636;51.684;5.142;2023-02-21T06:03:31;102051.41;;;7.66;100.00
67840;BME280;54636;51.684;5.142;2023-02-21T06:05:57;102045.22;;;7.52;100.00
67840;BME280;54636;51.684;5.142;2023-02-21T06:08:22;102032.84;;;7.39;100.00
67840;BME280;54636;51.684;5.142;2023-02-21T06:10:48;102067.09;;;7.58;100.00
67840;BME280;54636;51.684;5.142;2023-02-21T06:13:13;102016.59;;;7.26;100.00
67840;BME280;54636;51.684;5.142;2023-02-21T06:15:38;102035.22;;;7.37;100.00
67840;BME280;54636;51.684;5.142;2023-02-21T06:18:04;102030.28;;;7.48;100.00
67840;BME280;54636;51.684;5.142;2023-02-21T06:20:29;102042.00;;;7.57;100.00
67840;BME280;54636;51.684;5.142;2023-02-21T06:22:55;102058.22;;;7.57;100.00
67840;BME280;54636;51.684;5.142;2023-02-21T06:25:20;102013.47;;;7.27;100.00
67840;BME280;54636;51.684;5.142;2023-02-21T06:27:45;102057.03;;;7.58;100.00
67840;BME280;54636;51.684;5.142;2023-02-21T06:30:11;102061.78;;;7.54;100.00
67840;BME280;54636;51.684;5.142;2023-02-21T06:32:37;102052.66;;;7.48;100.00
67840;BME280;54636;51.684;5.142;2023-02-21T06:35:03;102053.00;;;7.50;100.00
67840;BME280;54636;51.684;5.142;2023-02-21T06:37:29;102043.47;;;7.46;100.00
67840;BME280;54636;51.684;5.142;2023-02-21T06:39:55;102035.34;;;7.46;100.00
67840;BME280;54636;51.684;5.142;2023-02-21T06:42:20;102059.06;;;7.54;100.00
67840;BME280;54636;51.684;5.142;2023-02-21T06:44:47;102051.16;;;7.47;100.00
67840;BME280;54636;51.684;5.142;2023-02-21T06:47:14;102062.63;;;7.51;100.00
67840;BME280;54636;51.684;5.142;2023-02-21T06:49:40;102047.78;;;7.43;100.00
67840;BME280;54636;51.684;5.142;2023-02-21T06:52:06;102069.88;;;7.54;100.00
67840;BME280;54636;51.684;5.142;2023-02-21T06:54:31;102061.88;;;7.51;100.00
67840;BME280;54636;51.684;5.142;2023-02-21T06:56:57;102075.63;;;7.56;100.00
67840;BME280;54636;51.684;5.142;2023-02-21T06:59:24;102074.00;;;7.59;100.00
67840;BME280;54636;51.684;5.142;2023-02-21T07:01:49;102061.31;;;7.43;100.00
67840;BME280;54636;51.684;5.142;2023-02-21T07:04:14;102068.22;;;7.44;100.00
67840;BME280;54636;51.684;5.142;2023-02-21T07:06:40;102066.28;;;7.45;100.00
67840;BME280;54636;51.684;5.142;2023-02-21T07:09:05;102081.78;;;7.57;100.00
67840;BME280;54636;51.684;5.142;2023-02-21T07:11:34;102078.75;;;7.55;100.00
67840;BME280;54636;51.684;5.142;2023-02-21T07:14:00;102082.22;;;7.55;100.00
67840;BME280;54636;51.684;5.142;2023-02-21T07:16:26;102066.38;;;7.41;100.00
67840;BME280;54636;51.684;5.142;2023-02-21T07:18:51;102086.88;;;7.55;100.00
67840;BME280;54636;51.684;5.142;2023-02-21T07:21:18;102089.22;;;7.53;100.00
67840;BME280;54636;51.684;5.142;2023-02-21T07:23:45;102088.47;;;7.52;100.00
67840;BME280;54636;51.684;5.142;2023-02-21T07:26:11;102077.75;;;7.49;100.00
67840;BME280;54636;51.684;5.142;2023-02-21T07:28:36;102078.66;;;7.58;100.00
67840;BME280;54636;51.684;5.142;2023-02-21T07:31:02;102074.09;;;7.55;100.00
67840;BME280;54636;51.684;5.142;2023-02-21T07:33:28;102082.13;;;7.59;100.00
67840;BME280;54636;51.684;5.142;2023-02-21T07:35:53;102077.75;;;7.49;100.00
67840;BME280;54636;51.684;5.142;2023-02-21T07:38:23;102078.84;;;7.51;100.00
67840;BME280;54636;51.684;5.142;2023-02-21T07:40:50;102092.06;;;7.62;100.00
67840;BME280;54636;51.684;5.142;2023-02-21T07:43:15;102081.59;;;7.64;100.00
67840;BME280;54636;51.684;5.142;2023-02-21T07:45:41;102070.44;;;7.62;100.00
67840;BME280;54636;51.684;5.142;2023-02-21T07:48:06;102058.75;;;7.52;100.00
67840;BME280;54636;51.684;5.142;2023-02-21T07:50:31;102065.91;;;7.59;100.00
67840;BME280;54636;51.684;5.142;2023-02-21T07:52:57;102073.16;;;7.62;100.00
67840;BME280;54636;51.684;5.142;2023-02-21T07:55:24;102091.66;;;7.64;100.00
67840;BME280;54636;51.684;5.142;2023-02-21T07:57:49;102059.25;;;7.47;100.00
67840;BME280;54636;51.684;5.142;2023-02-21T08:00:15;102087.00;;;7.64;100.00
67840;BME280;54636;51.684;5.142;2023-02-21T08:02:48;102087.00;;;7.64;100.00
67840;BME280;54636;51.684;5.142;2023-02-21T08:05:14;102085.38;;;7.67;100.00
67840;BME280;54636;51.684;5.142;2023-02-21T08:07:39;102076.84;;;7.68;100.00
67840;BME280;54636;51.684;5.142;2023-02-21T08:10:05;102074.56;;;7.67;100.00
67840;BME280;54636;51.684;5.142;2023-02-21T08:12:30;102076.94;;;7.65;100.00
67840;BME280;54636;51.684;5.142;2023-02-21T08:14:56;102092.88;;;7.75;100.00
67840;BME280;54636;51.684;5.142;2023-02-21T08:17:21;102089.41;;;7.75;100.00
67840;BME280;54636;51.684;5.142;2023-02-21T08:19:47;102077.69;;;7.65;100.00
67840;BME280;54636;51.684;5.142;2023-02-21T08:22:12;102080.53;;;7.74;100.00
67840;BME280;54636;51.684;5.142;2023-02-21T08:24:37;102091.59;;;7.80;100.00
67840;BME280;54636;51.684;5.142;2023-02-21T08:27:03;102075.88;;;7.75;100.00
67840;BME280;54636;51.684;5.142;2023-02-21T08:29:28;102062.91;;;7.70;100.00
67840;BME280;54636;51.684;5.142;2023-02-21T08:31:54;102045.03;;;7.59;100.00
67840;BME280;54636;51.684;5.142;2023-02-21T08:34:19;102078.81;;;7.93;100.00
67840;BME280;54636;51.684;5.142;2023-02-21T08:36:44;102084.66;;;7.91;100.00
67840;BME280;54636;51.684;5.142;2023-02-21T08:39:10;102094.53;;;7.98;100.00
67840;BME280;54636;51.684;5.142;2023-02-21T08:41:44;102080.22;;;7.98;100.00
67840;BME280;54636;51.684;5.142;2023-02-21T08:44:11;102080.91;;;8.02;100.00
67840;BME280;54636;51.684;5.142;2023-02-21T08:46:37;102054.81;;;7.95;100.00
67840;BME280;54636;51.684;5.142;2023-02-21T08:49:03;102072.34;;;8.16;100.00
67840;BME280;54636;51.684;5.142;2023-02-21T08:51:31;102080.38;;;8.19;100.00
67840;BME280;54636;51.684;5.142;2023-02-21T08:53:57;102070.50;;;8.13;100.00
67840;BME280;54636;51.684;5.142;2023-02-21T08:56:24;102072.69;;;8.18;100.00
67840;BME280;54636;51.684;5.142;2023-02-21T08:58:50;102077.03;;;8.28;100.00
67840;BME280;54636;51.684;5.142;2023-02-21T09:01:16;102040.53;;;8.07;100.00
67840;BME280;54636;51.684;5.142;2023-02-21T09:03:41;102074.19;;;8.32;100.00
67840;BME280;54636;51.684;5.142;2023-02-21T09:06:07;102083.75;;;8.36;100.00
67840;BME280;54636;51.684;5.142;2023-02-21T09:08:33;102072.50;;;8.38;100.00
67840;BME280;54636;51.684;5.142;2023-02-21T09:11:01;102074.00;;;8.39;100.00
67840;BME280;54636;51.684;5.142;2023-02-21T09:13:27;102053.41;;;8.29;100.00
67840;BME280;54636;51.684;5.142;2023-02-21T09:15:54;102063.06;;;8.30;100.00
67840;BME280;54636;51.684;5.142;2023-02-21T09:18:20;102064.81;;;8.36;100.00
67840;BME280;54636;51.684;5.142;2023-02-21T09:20:45;102052.69;;;8.41;100.00
67840;BME280;54636;51.684;5.142;2023-02-21T09:23:18;102060.16;;;8.37;100.00
67840;BME280;54636;51.684;5.142;2023-02-21T09:25:45;102066.75;;;8.36;100.00
67840;BME280;54636;51.684;5.142;2023-02-21T09:28:11;102042.38;;;8.23;100.00
67840;BME280;54636;51.684;5.142;2023-02-21T09:30:36;102056.44;;;8.31;100.00
67840;BME280;54636;51.684;5.142;2023-02-21T09:33:01;102043.25;;;8.20;100.00
67840;BME280;54636;51.684;5.142;2023-02-21T09:35:27;102058.50;;;8.26;100.00
67840;BME280;54636;51.684;5.142;2023-02-21T09:37:55;102033.69;;;8.03;100.00
67840;BME280;54636;51.684;5.142;2023-02-21T09:42:59;102051.56;;;8.25;100.00
67840;BME280;54636;51.684;5.142;2023-02-21T09:45:33;102036.09;;;8.13;100.00
67840;BME280;54636;51.684;5.142;2023-02-21T09:48:05;102042.69;;;8.25;100.00
67840;BME280;54636;51.684;5.142;2023-02-21T09:50:39;102055.91;;;8.23;100.00
67840;BME280;54636;51.684;5.142;2023-02-21T09:53:06;102053.75;;;8.18;100.00
67840;BME280;54636;51.684;5.142;2023-02-21T09:55:38;102053.31;;;8.19;100.00
67840;BME280;54636;51.684;5.142;2023-02-21T09:58:11;102049.72;;;8.22;100.00
67840;BME280;54636;51.684;5.142;2023-02-21T10:00:37;102045.50;;;8.21;100.00
67840;BME280;54636;51.684;5.142;2023-02-21T10:03:23;102054.72;;;8.24;100.00
67840;BME280;54636;51.684;5.142;2023-02-21T10:06:08;102044.22;;;8.13;100.00
67840;BME280;54636;51.684;5.142;2023-02-21T10:14:01;102066.84;;;8.32;100.00
67840;BME280;54636;51.684;5.142;2023-02-21T10:16:40;102061.22;;;8.26;100.00
67840;BME280;54636;51.684;5.142;2023-02-21T10:19:28;102058.06;;;8.28;100.00
67840;BME280;54636;51.684;5.142;2023-02-21T10:21:56;102063.38;;;8.32;100.00
67840;BME280;54636;51.684;5.142;2023-02-21T10:24:26;102050.81;;;8.25;100.00
67840;BME280;54636;51.684;5.142;2023-02-21T10:27:06;102052.13;;;8.20;100.00
67840;BME280;54636;51.684;5.142;2023-02-21T10:29:39;102052.53;;;8.19;100.00
67840;BME280;54636;51.684;5.142;2023-02-21T10:32:08;102058.81;;;8.29;100.00
67840;BME280;54636;51.684;5.142;2023-02-21T10:34:34;102030.34;;;8.11;100.00
67840;BME280;54636;51.684;5.142;2023-02-21T10:38:02;102054.41;;;8.35;100.00
67840;BME280;54636;51.684;5.142;2023-02-21T10:42:48;102031.31;;;8.17;100.00
67840;BME280;54636;51.684;5.142;2023-02-21T10:45:19;101996.91;;;7.92;100.00
67840;BME280;54636;51.684;5.142;2023-02-21T10:48:14;102050.41;;;8.39;100.00
67840;BME280;54636;51.684;5.142;2023-02-21T10:53:27;102049.00;;;8.35;100.00
67840;BME280;54636;51.684;5.142;2023-02-21T10:56:21;102043.47;;;8.38;100.00
67840;BME280;54636;51.684;5.142;2023-02-21T10:59:01;102012.16;;;8.12;100.00
67840;BME280;54636;51.684;5.142;2023-02-21T11:01:51;102028.19;;;8.32;100.00
67840;BME280;54636;51.684;5.142;2023-02-21T11:06:49;102000.81;;;8.17;100.00
67840;BME280;54636;51.684;5.142;2023-02-21T11:12:21;102041.91;;;8.50;100.00
67840;BME280;54636;51.684;5.142;2023-02-21T11:17:26;102030.78;;;8.48;100.00
67840;BME280;54636;51.684;5.142;2023-02-21T11:19:53;102038.13;;;8.60;100.00
67840;BME280;54636;51.684;5.142;2023-02-21T11:22:25;102027.72;;;8.58;100.00
67840;BME280;54636;51.684;5.142;2023-02-21T11:24:55;102026.41;;;8.63;100.00
67840;BME280;54636;51.684;5.142;2023-02-21T11:27:22;102024.13;;;8.62;100.00
67840;BME280;54636;51.684;5.142;2023-02-21T11:29:50;101998.47;;;8.53;100.00
67840;BME280;54636;51.684;5.142;2023-02-21T11:34:49;102014.50;;;8.61;100.00
67840;BME280;54636;51.684;5.142;2023-02-21T11:37:15;102009.72;;;8.65;100.00
67840;BME280;54636;51.684;5.142;2023-02-21T11:39:49;101993.44;;;8.43;100.00
67840;BME280;54636;51.684;5.142;2023-02-21T11:42:30;101988.56;;;8.38;100.00
67840;BME280;54636;51.684;5.142;2023-02-21T11:45:23;102005.72;;;8.56;100.00
67840;BME280;54636;51.684;5.142;2023-02-21T11:48:02;102004.13;;;8.46;100.00
67840;BME280;54636;51.684;5.142;2023-02-21T11:50:33;102009.09;;;8.48;100.00
67840;BME280;54636;51.684;5.142;2023-02-21T11:56:03;101962.91;;;8.30;100.00
67840;BME280;54636;51.684;5.142;2023-02-21T11:58:57;101993.91;;;8.63;100.00
67840;BME280;54636;51.684;5.142;2023-02-21T12:07:16;102001.41;;;8.59;100.00
67840;BME280;54636;51.684;5.142;2023-02-21T12:26:25;101974.63;;;8.61;100.00
67840;BME280;54636;51.684;5.142;2023-02-21T12:29:24;101979.63;;;8.63;100.00
67840;BME280;54636;51.684;5.142;2023-02-21T12:37:52;101964.78;;;8.54;100.00
67840;BME280;54636;51.684;5.142;2023-02-21T12:45:38;101966.06;;;8.63;100.00
67840;BME280;54636;51.684;5.142;2023-02-21T12:48:18;101967.91;;;8.66;100.00
67840;BME280;54636;51.684;5.142;2023-02-21T12:50:51;101966.16;;;8.72;100.00
67840;BME280;54636;51.684;5.142;2023-02-21T12:53:30;101968.19;;;8.80;100.00
67840;BME280;54636;51.684;5.142;2023-02-21T12:56:02;101967.81;;;8.91;100.00
67840;BME280;54636;51.684;5.142;2023-02-21T13:03:41;101953.66;;;9.09;100.00
67840;BME280;54636;51.684;5.142;2023-02-21T13:06:30;101944.31;;;9.10;100.00
67840;BME280;54636;51.684;5.142;2023-02-21T13:11:46;101952.09;;;9.30;100.00
67840;BME280;54636;51.684;5.142;2023-02-21T13:14:17;101938.09;;;9.31;100.00
67840;BME280;54636;51.684;5.142;2023-02-21T13:16:44;101934.94;;;9.33;100.00
67840;BME280;54636;51.684;5.142;2023-02-21T13:19:11;101941.44;;;9.35;100.00
67840;BME280;54636;51.684;5.142;2023-02-21T13:24:36;101943.88;;;9.42;100.00
67840;BME280;54636;51.684;5.142;2023-02-21T13:29:33;101926.25;;;9.16;100.00
67840;BME280;54636;51.684;5.142;2023-02-21T13:32:13;101931.19;;;9.08;100.00
67840;BME280;54636;51.684;5.142;2023-02-21T13:34:54;101932.25;;;9.11;100.00
67840;BME280;54636;51.684;5.142;2023-02-21T13:37:22;101940.16;;;8.96;100.00
67840;BME280;54636;51.684;5.142;2023-02-21T13:39:52;101916.06;;;8.76;100.00
67840;BME280;54636;51.684;5.142;2023-02-21T13:42:22;101917.28;;;8.75;100.00
67840;BME280;54636;51.684;5.142;2023-02-21T13:45:34;101935.88;;;8.86;100.00
67840;BME280;54636;51.684;5.142;2023-02-21T13:53:14;101932.22;;;8.80;100.00
67840;BME280;54636;51.684;5.142;2023-02-21T13:58:39;101928.44;;;8.77;100.00
67840;BME280;54636;51.684;5.142;2023-02-21T14:01:42;101876.88;;;8.46;100.00
67840;BME280;54636;51.684;5.142;2023-02-21T14:07:10;101914.19;;;8.64;100.00
67840;BME280;54636;51.684;5.142;2023-02-21T14:09:39;101911.59;;;8.61;100.00
67840;BME280;54636;51.684;5.142;2023-02-21T14:12:05;101917.63;;;8.65;100.00
67840;BME280;54636;51.684;5.142;2023-02-21T14:14:34;101918.50;;;8.62;100.00
67840;BME280;54636;51.684;5.142;2023-02-21T14:17:06;101921.34;;;8.58;100.00
67840;BME280;54636;51.684;5.142;2023-02-21T14:19:44;101907.13;;;8.45;100.00
67840;BME280;54636;51.684;5.142;2023-02-21T14:22:14;101907.25;;;8.41;100.00
67840;BME280;54636;51.684;5.142;2023-02-21T14:24:43;101913.72;;;8.44;100.00
67840;BME280;54636;51.684;5.142;2023-02-21T14:29:40;101897.72;;;8.37;100.00
67840;BME280;54636;51.684;5.142;2023-02-21T14:39:42;101895.66;;;8.41;100.00
67840;BME280;54636;51.684;5.142;2023-02-21T14:42:45;101889.03;;;8.42;100.00
67840;BME280;54636;51.684;5.142;2023-02-21T14:45:32;101882.25;;;8.37;100.00
67840;BME280;54636;51.684;5.142;2023-02-21T14:48:45;101894.47;;;8.42;100.00
67840;BME280;54636;51.684;5.142;2023-02-21T14:56:57;101833.59;;;7.99;100.00
67840;BME280;54636;51.684;5.142;2023-02-21T14:59:51;101871.09;;;8.22;100.00
67840;BME280;54636;51.684;5.142;2023-02-21T15:05:15;101883.63;;;8.29;100.00
67840;BME280;54636;51.684;5.142;2023-02-21T15:10:30;101861.47;;;8.21;100.00
67840;BME280;54636;51.684;5.142;2023-02-21T15:13:02;101876.19;;;8.20;100.00
67840;BME280;54636;51.684;5.142;2023-02-21T15:15:32;101862.56;;;8.11;100.00
67840;BME280;54636;51.684;5.142;2023-02-21T15:18:09;101845.72;;;7.94;100.00
67840;BME280;54636;51.684;5.142;2023-02-21T15:20:40;101866.34;;;8.14;100.00
67840;BME280;54636;51.684;5.142;2023-02-21T15:23:10;101889.59;;;8.24;100.00
67840;BME280;54636;51.684;5.142;2023-02-21T15:25:37;101873.72;;;8.13;100.00
67840;BME280;54636;51.684;5.142;2023-02-21T15:28:05;101871.44;;;8.12;100.00
67840;BME280;54636;51.684;5.142;2023-02-21T15:30:39;101877.06;;;8.17;100.00
67840;BME280;54636;51.684;5.142;2023-02-21T15:33:15;101883.56;;;8.20;100.00
67840;BME280;54636;51.684;5.142;2023-02-21T15:38:35;101876.75;;;8.15;100.00